sensor_id;sensor_type;location;lat;lon;timestamp;temperature;humidity
39847;DHT22;25517;52.422;10.782;2022-08-19T00:01:42;21.20;99.90
39847;DHT22;25517;52.422;10.782;2022-08-19T00:04:10;21.20;99.90
39847;DHT22;25517;52.422;10.782;2022-08-19T00:06:37;21.10;99.90
39847;DHT22;25517;52.422;10.782;2022-08-19T00:09:06;21.10;99.90
39847;DHT22;25517;52.422;10.782;2022-08-19T00:11:32;21.10;99.90
39847;DHT22;25517;52.422;10.782;2022-08-19T00:13:59;21.10;99.90
39847;DHT22;25517;52.422;10.782;2022-08-19T00:16:25;21.00;99.90
39847;DHT22;25517;52.422;10.782;2022-08-19T00:18:51;21.10;99.90
39847;DHT22;25517;52.422;10.782;2022-08-19T00:21:16;21.00;99.90
39847;DHT22;25517;52.422;10.782;2022-08-19T00:23:43;21.00;99.90
39847;DHT22;25517;52.422;10.782;2022-08-19T00:26:10;21.00;99.90
39847;DHT22;25517;52.422;10.782;2022-08-19T00:28:36;21.00;99.90
39847;DHT22;25517;52.422;10.782;2022-08-19T00:31:06;20.90;99.90
39847;DHT22;25517;52.422;10.782;2022-08-19T00:33:32;20.90;99.90
39847;DHT22;25517;52.422;10.782;2022-08-19T00:36:02;20.90;99.90
39847;DHT22;25517;52.422;10.782;2022-08-19T00:38:29;20.80;99.90
39847;DHT22;25517;52.422;10.782;2022-08-19T00:40:55;20.80;99.90
39847;DHT22;25517;52.422;10.782;2022-08-19T00:43:22;20.80;99.90
39847;DHT22;25517;52.422;10.782;2022-08-19T00:45:48;20.80;99.90
39847;DHT22;25517;52.422;10.782;2022-08-19T00:48:15;20.80;99.90
39847;DHT22;25517;52.422;10.782;2022-08-19T00:50:42;20.80;99.90
39847;DHT22;25517;52.422;10.782;2022-08-19T00:53:10;20.80;99.90
39847;DHT22;25517;52.422;10.782;2022-08-19T00:55:37;20.80;99.90
39847;DHT22;25517;52.422;10.782;2022-08-19T00:58:08;20.80;99.90
39847;DHT22;25517;52.422;10.782;2022-08-19T01:00:36;20.70;99.90
39847;DHT22;25517;52.422;10.782;2022-08-19T01:03:05;20.70;99.90
39847;DHT22;25517;52.422;10.782;2022-08-19T01:05:31;20.70;99.90
39847;DHT22;25517;52.422;10.782;2022-08-19T01:07:59;20.70;99.90
39847;DHT22;25517;52.422;10.782;2022-08-19T01:10:28;20.60;99.90
39847;DHT22;25517;52.422;10.782;2022-08-19T01:12:54;20.60;99.90
39847;DHT22;25517;52.422;10.782;2022-08-19T01:15:25;20.60;99.90
39847;DHT22;25517;52.422;10.782;2022-08-19T01:17:52;20.60;99.90
39847;DHT22;25517;52.422;10.782;2022-08-19T01:20:20;20.60;99.90
39847;DHT22;25517;52.422;10.782;2022-08-19T01:22:50;20.60;99.90
39847;DHT22;25517;52.422;10.782;2022-08-19T01:25:18;20.60;99.90
39847;DHT22;25517;52.422;10.782;2022-08-19T01:27:47;20.60;99.90
39847;DHT22;25517;52.422;10.782;2022-08-19T01:30:17;20.60;99.90
39847;DHT22;25517;52.422;10.782;2022-08-19T01:32:43;20.50;99.90
39847;DHT22;25517;52.422;10.782;2022-08-19T01:35:11;20.50;99.90
39847;DHT22;25517;52.422;10.782;2022-08-19T01:37:45;20.50;99.90
39847;DHT22;25517;52.422;10.782;2022-08-19T01:40:12;20.40;99.90
39847;DHT22;25517;52.422;10.782;2022-08-19T01:42:37;20.40;99.90
39847;DHT22;25517;52.422;10.782;2022-08-19T01:45:05;20.40;99.90
39847;DHT22;25517;52.422;10.782;2022-08-19T01:47:30;20.40;99.90
39847;DHT22;25517;52.422;10.782;2022-08-19T01:49:57;20.40;99.90
39847;DHT22;25517;52.422;10.782;2022-08-19T01:52:23;20.40;99.90
39847;DHT22;25517;52.422;10.782;2022-08-19T01:54:48;20.30;99.90
39847;DHT22;25517;52.422;10.782;2022-08-19T01:57:14;20.30;99.90
39847;DHT22;25517;52.422;10.782;2022-08-19T01:59:42;20.40;99.90
39847;DHT22;25517;52.422;10.782;2022-08-19T02:02:08;20.30;99.90
39847;DHT22;25517;52.422;10.782;2022-08-19T02:04:34;20.30;99.90
39847;DHT22;25517;52.422;10.782;2022-08-19T02:07:00;20.30;99.90
39847;DHT22;25517;52.422;10.782;2022-08-19T02:09:26;20.20;99.90
39847;DHT22;25517;52.422;10.782;2022-08-19T02:11:52;20.20;99.90
39847;DHT22;25517;52.422;10.782;2022-08-19T02:14:18;20.20;99.90
39847;DHT22;25517;52.422;10.782;2022-08-19T02:16:44;20.20;99.90
39847;DHT22;25517;52.422;10.782;2022-08-19T02:19:09;20.10;99.90
39847;DHT22;25517;52.422;10.782;2022-08-19T02:21:35;20.10;99.90
39847;DHT22;25517;52.422;10.782;2022-08-19T02:24:02;20.10;99.90
39847;DHT22;25517;52.422;10.782;2022-08-19T02:26:27;20.10;99.90
39847;DHT22;25517;52.422;10.782;2022-08-19T02:28:54;20.00;99.90
39847;DHT22;25517;52.422;10.782;2022-08-19T02:31:21;20.00;99.90
39847;DHT22;25517;52.422;10.782;2022-08-19T02:33:48;20.00;99.90
39847;DHT22;25517;52.422;10.782;2022-08-19T02:36:15;19.90;99.90
39847;DHT22;25517;52.422;10.782;2022-08-19T02:38:41;19.90;99.90
39847;DHT22;25517;52.422;10.782;2022-08-19T02:41:12;19.90;99.90
39847;DHT22;25517;52.422;10.782;2022-08-19T02:43:38;19.90;99.90
39847;DHT22;25517;52.422;10.782;2022-08-19T02:46:24;19.80;99.90
39847;DHT22;25517;52.422;10.782;2022-08-19T02:48:51;19.80;99.90
39847;DHT22;25517;52.422;10.782;2022-08-19T02:51:30;19.70;99.90
39847;DHT22;25517;52.422;10.782;2022-08-19T02:53:56;19.70;99.90
39847;DHT22;25517;52.422;10.782;2022-08-19T02:56:22;19.70;99.90
39847;DHT22;25517;52.422;10.782;2022-08-19T02:58:49;19.60;99.90
39847;DHT22;25517;52.422;10.782;2022-08-19T03:01:31;19.60;99.90
39847;DHT22;25517;52.422;10.782;2022-08-19T03:04:00;19.60;99.90
39847;DHT22;25517;52.422;10.782;2022-08-19T03:06:26;19.60;99.90
39847;DHT22;25517;52.422;10.782;2022-08-19T03:08:53;19.60;99.90
39847;DHT22;25517;52.422;10.782;2022-08-19T03:13:46;19.50;99.90
39847;DHT22;25517;52.422;10.782;2022-08-19T03:16:14;19.50;99.90
39847;DHT22;25517;52.422;10.782;2022-08-19T03:18:40;19.50;99.90
39847;DHT22;25517;52.422;10.782;2022-08-19T03:21:06;19.50;99.90
39847;DHT22;25517;52.422;10.782;2022-08-19T03:23:32;19.50;99.90
39847;DHT22;25517;52.422;10.782;2022-08-19T03:25:57;19.40;99.90
39847;DHT22;25517;52.422;10.782;2022-08-19T03:28:23;19.40;99.90
39847;DHT22;25517;52.422;10.782;2022-08-19T03:31:00;19.40;99.90
39847;DHT22;25517;52.422;10.782;2022-08-19T03:33:28;19.40;99.90
39847;DHT22;25517;52.422;10.782;2022-08-19T03:36:13;19.40;99.90
39847;DHT22;25517;52.422;10.782;2022-08-19T03:38:45;19.40;99.90
39847;DHT22;25517;52.422;10.782;2022-08-19T03:41:14;19.40;99.90
39847;DHT22;25517;52.422;10.782;2022-08-19T03:43:41;19.40;99.90
39847;DHT22;25517;52.422;10.782;2022-08-19T03:46:10;19.30;99.90
39847;DHT22;25517;52.422;10.782;2022-08-19T03:48:37;19.30;99.90
39847;DHT22;25517;52.422;10.782;2022-08-19T03:51:04;19.30;99.90
39847;DHT22;25517;52.422;10.782;2022-08-19T03:53:32;19.30;99.90
39847;DHT22;25517;52.422;10.782;2022-08-19T03:55:58;19.20;99.90
39847;DHT22;25517;52.422;10.782;2022-08-19T03:58:28;19.20;99.90
39847;DHT22;25517;52.422;10.782;2022-08-19T04:00:57;19.20;99.90
39847;DHT22;25517;52.422;10.782;2022-08-19T04:03:26;19.20;99.90
39847;DHT22;25517;52.422;10.782;2022-08-19T04:05:52;19.10;99.90
39847;DHT22;25517;52.422;10.782;2022-08-19T04:08:19;19.10;99.90
39847;DHT22;25517;52.422;10.782;2022-08-19T04:10:48;19.10;99.90
39847;DHT22;25517;52.422;10.782;2022-08-19T04:13:15;19.10;99.90
39847;DHT22;25517;52.422;10.782;2022-08-19T04:15:42;19.10;99.90
39847;DHT22;25517;52.422;10.782;2022-08-19T04:18:09;19.10;99.90
39847;DHT22;25517;52.422;10.782;2022-08-19T04:20:45;19.10;99.90
39847;DHT22;25517;52.422;10.782;2022-08-19T04:23:12;19.10;99.90
39847;DHT22;25517;52.422;10.782;2022-08-19T04:25:41;19.00;99.90
39847;DHT22;25517;52.422;10.782;2022-08-19T04:28:08;19.00;99.90
39847;DHT22;25517;52.422;10.782;2022-08-19T04:30:54;19.00;99.90
39847;DHT22;25517;52.422;10.782;2022-08-19T04:33:23;19.00;99.90
39847;DHT22;25517;52.422;10.782;2022-08-19T04:35:51;18.90;99.90
39847;DHT22;25517;52.422;10.782;2022-08-19T04:38:19;19.00;99.90
39847;DHT22;25517;52.422;10.782;2022-08-19T04:40:50;18.90;99.90
39847;DHT22;25517;52.422;10.782;2022-08-19T04:43:36;18.90;99.90
39847;DHT22;25517;52.422;10.782;2022-08-19T04:46:20;18.90;99.90
39847;DHT22;25517;52.422;10.782;2022-08-19T04:48:46;18.80;99.90
39847;DHT22;25517;52.422;10.782;2022-08-19T04:51:13;18.80;99.90
39847;DHT22;25517;52.422;10.782;2022-08-19T04:53:41;18.80;99.90
39847;DHT22;25517;52.422;10.782;2022-08-19T04:56:13;18.80;99.90
39847;DHT22;25517;52.422;10.782;2022-08-19T04:58:42;18.80;99.90
39847;DHT22;25517;52.422;10.782;2022-08-19T05:01:13;18.80;99.90
39847;DHT22;25517;52.422;10.782;2022-08-19T05:03:39;18.80;99.90
39847;DHT22;25517;52.422;10.782;2022-08-19T05:06:09;18.80;99.90
39847;DHT22;25517;52.422;10.782;2022-08-19T05:08:36;18.70;99.90
39847;DHT22;25517;52.422;10.782;2022-08-19T05:11:09;18.70;99.90
39847;DHT22;25517;52.422;10.782;2022-08-19T05:13:36;18.80;99.90
39847;DHT22;25517;52.422;10.782;2022-08-19T05:16:02;18.70;99.90
39847;DHT22;25517;52.422;10.782;2022-08-19T05:18:28;18.70;99.90
39847;DHT22;25517;52.422;10.782;2022-08-19T05:21:15;18.60;99.90
39847;DHT22;25517;52.422;10.782;2022-08-19T05:23:59;18.60;99.90
39847;DHT22;25517;52.422;10.782;2022-08-19T05:26:26;18.60;99.90
39847;DHT22;25517;52.422;10.782;2022-08-19T05:28:52;18.60;99.90
39847;DHT22;25517;52.422;10.782;2022-08-19T05:31:18;18.60;99.90
39847;DHT22;25517;52.422;10.782;2022-08-19T05:33:44;18.60;99.90
39847;DHT22;25517;52.422;10.782;2022-08-19T05:36:10;18.60;99.90
39847;DHT22;25517;52.422;10.782;2022-08-19T05:38:35;18.60;99.90
39847;DHT22;25517;52.422;10.782;2022-08-19T05:41:09;18.60;99.90
39847;DHT22;25517;52.422;10.782;2022-08-19T05:43:35;18.70;99.90
39847;DHT22;25517;52.422;10.782;2022-08-19T05:46:02;18.60;99.90
39847;DHT22;25517;52.422;10.782;2022-08-19T05:48:29;18.60;99.90
39847;DHT22;25517;52.422;10.782;2022-08-19T05:50:55;18.70;99.90
39847;DHT22;25517;52.422;10.782;2022-08-19T05:53:23;18.70;99.90
39847;DHT22;25517;52.422;10.782;2022-08-19T05:55:48;18.70;99.90
39847;DHT22;25517;52.422;10.782;2022-08-19T05:58:14;18.80;99.90
39847;DHT22;25517;52.422;10.782;2022-08-19T06:00:40;18.90;99.90
39847;DHT22;25517;52.422;10.782;2022-08-19T06:03:08;18.90;99.90
39847;DHT22;25517;52.422;10.782;2022-08-19T06:05:33;19.00;99.90
39847;DHT22;25517;52.422;10.782;2022-08-19T06:07:59;19.00;99.90
39847;DHT22;25517;52.422;10.782;2022-08-19T06:10:25;19.10;99.90
39847;DHT22;25517;52.422;10.782;2022-08-19T06:12:51;19.10;99.90
39847;DHT22;25517;52.422;10.782;2022-08-19T06:15:17;19.20;99.90
39847;DHT22;25517;52.422;10.782;2022-08-19T06:17:43;19.30;99.90
39847;DHT22;25517;52.422;10.782;2022-08-19T06:20:12;19.30;99.90
39847;DHT22;25517;52.422;10.782;2022-08-19T06:22:40;19.30;99.90
39847;DHT22;25517;52.422;10.782;2022-08-19T06:25:06;19.40;99.90
39847;DHT22;25517;52.422;10.782;2022-08-19T06:27:34;19.30;99.90
39847;DHT22;25517;52.422;10.782;2022-08-19T06:30:00;19.30;99.90
39847;DHT22;25517;52.422;10.782;2022-08-19T06:32:25;19.40;99.90
39847;DHT22;25517;52.422;10.782;2022-08-19T06:34:51;19.30;99.90
39847;DHT22;25517;52.422;10.782;2022-08-19T06:37:17;19.40;99.90
39847;DHT22;25517;52.422;10.782;2022-08-19T06:39:43;19.30;99.90
39847;DHT22;25517;52.422;10.782;2022-08-19T06:42:11;19.30;99.90
39847;DHT22;25517;52.422;10.782;2022-08-19T06:44:42;19.30;99.90
39847;DHT22;25517;52.422;10.782;2022-08-19T06:47:10;19.30;99.90
39847;DHT22;25517;52.422;10.782;2022-08-19T06:49:36;19.30;99.90
39847;DHT22;25517;52.422;10.782;2022-08-19T06:52:03;19.30;99.90
39847;DHT22;25517;52.422;10.782;2022-08-19T06:54:29;19.30;99.90
39847;DHT22;25517;52.422;10.782;2022-08-19T06:56:55;19.20;99.90
39847;DHT22;25517;52.422;10.782;2022-08-19T06:59:23;19.20;99.90
39847;DHT22;25517;52.422;10.782;2022-08-19T07:01:54;19.10;99.90
39847;DHT22;25517;52.422;10.782;2022-08-19T07:04:23;19.10;99.90
39847;DHT22;25517;52.422;10.782;2022-08-19T07:06:50;19.10;99.90
39847;DHT22;25517;52.422;10.782;2022-08-19T07:09:21;19.00;99.90
39847;DHT22;25517;52.422;10.782;2022-08-19T07:11:49;19.10;99.90
39847;DHT22;25517;52.422;10.782;2022-08-19T07:14:17;19.10;99.90
39847;DHT22;25517;52.422;10.782;2022-08-19T07:16:44;19.10;99.90
39847;DHT22;25517;52.422;10.782;2022-08-19T07:19:11;19.10;99.90
39847;DHT22;25517;52.422;10.782;2022-08-19T07:21:36;19.10;99.90
39847;DHT22;25517;52.422;10.782;2022-08-19T07:24:03;19.00;99.90
39847;DHT22;25517;52.422;10.782;2022-08-19T07:26:32;19.00;99.90
39847;DHT22;25517;52.422;10.782;2022-08-19T07:28:58;19.00;99.90
39847;DHT22;25517;52.422;10.782;2022-08-19T07:31:26;19.00;99.90
39847;DHT22;25517;52.422;10.782;2022-08-19T07:33:54;18.90;99.90
39847;DHT22;25517;52.422;10.782;2022-08-19T07:36:25;18.90;99.90
39847;DHT22;25517;52.422;10.782;2022-08-19T07:38:53;18.90;99.90
39847;DHT22;25517;52.422;10.782;2022-08-19T07:41:23;18.90;99.90
39847;DHT22;25517;52.422;10.782;2022-08-19T07:43:49;18.80;99.90
39847;DHT22;25517;52.422;10.782;2022-08-19T07:46:15;18.70;99.90
39847;DHT22;25517;52.422;10.782;2022-08-19T07:48:43;18.80;99.90
39847;DHT22;25517;52.422;10.782;2022-08-19T07:51:11;18.70;99.90
39847;DHT22;25517;52.422;10.782;2022-08-19T07:53:37;18.70;99.90
39847;DHT22;25517;52.422;10.782;2022-08-19T07:56:04;18.70;99.90
39847;DHT22;25517;52.422;10.782;2022-08-19T07:58:32;18.70;99.90
39847;DHT22;25517;52.422;10.782;2022-08-19T08:00:58;18.70;99.90
39847;DHT22;25517;52.422;10.782;2022-08-19T08:03:25;18.60;99.90
39847;DHT22;25517;52.422;10.782;2022-08-19T08:06:12;18.60;99.90
39847;DHT22;25517;52.422;10.782;2022-08-19T08:08:56;18.60;99.90
39847;DHT22;25517;52.422;10.782;2022-08-19T08:11:47;18.60;99.90
39847;DHT22;25517;52.422;10.782;2022-08-19T08:14:21;18.60;99.90
39847;DHT22;25517;52.422;10.782;2022-08-19T08:16:48;18.60;99.90
39847;DHT22;25517;52.422;10.782;2022-08-19T08:19:15;18.60;99.90
39847;DHT22;25517;52.422;10.782;2022-08-19T08:21:42;18.60;99.90
39847;DHT22;25517;52.422;10.782;2022-08-19T08:24:08;18.60;99.90
39847;DHT22;25517;52.422;10.782;2022-08-19T08:26:34;18.60;99.90
39847;DHT22;25517;52.422;10.782;2022-08-19T08:28:59;18.50;99.90
39847;DHT22;25517;52.422;10.782;2022-08-19T08:31:25;18.50;99.90
39847;DHT22;25517;52.422;10.782;2022-08-19T08:33:50;18.50;99.90
39847;DHT22;25517;52.422;10.782;2022-08-19T08:36:16;18.50;99.90
39847;DHT22;25517;52.422;10.782;2022-08-19T08:38:43;18.40;99.90
39847;DHT22;25517;52.422;10.782;2022-08-19T08:43:56;18.40;99.90
39847;DHT22;25517;52.422;10.782;2022-08-19T08:46:35;18.40;99.90
39847;DHT22;25517;52.422;10.782;2022-08-19T08:49:39;18.40;99.90
39847;DHT22;25517;52.422;10.782;2022-08-19T08:52:29;18.40;99.90
39847;DHT22;25517;52.422;10.782;2022-08-19T08:54:58;18.50;99.90
39847;DHT22;25517;52.422;10.782;2022-08-19T08:57:35;18.50;99.90
39847;DHT22;25517;52.422;10.782;2022-08-19T09:00:08;18.50;99.90
39847;DHT22;25517;52.422;10.782;2022-08-19T09:02:35;18.50;99.90
39847;DHT22;25517;52.422;10.782;2022-08-19T09:05:00;18.50;99.90
39847;DHT22;25517;52.422;10.782;2022-08-19T09:07:39;18.50;99.90
39847;DHT22;25517;52.422;10.782;2022-08-19T09:15:39;18.50;99.90
39847;DHT22;25517;52.422;10.782;2022-08-19T09:18:05;18.50;99.90
39847;DHT22;25517;52.422;10.782;2022-08-19T09:20:31;18.50;99.90
39847;DHT22;25517;52.422;10.782;2022-08-19T09:22:57;18.50;99.90
39847;DHT22;25517;52.422;10.782;2022-08-19T09:25:23;18.60;99.90
39847;DHT22;25517;52.422;10.782;2022-08-19T09:27:51;18.60;99.90
39847;DHT22;25517;52.422;10.782;2022-08-19T09:30:27;18.70;99.90
39847;DHT22;25517;52.422;10.782;2022-08-19T09:32:54;18.70;99.90
39847;DHT22;25517;52.422;10.782;2022-08-19T09:35:25;18.80;99.90
39847;DHT22;25517;52.422;10.782;2022-08-19T09:37:51;18.80;99.90
39847;DHT22;25517;52.422;10.782;2022-08-19T09:40:17;18.80;99.90
39847;DHT22;25517;52.422;10.782;2022-08-19T09:42:44;18.90;99.90
39847;DHT22;25517;52.422;10.782;2022-08-19T09:45:13;18.80;99.90
39847;DHT22;25517;52.422;10.782;2022-08-19T09:47:39;18.80;99.90
39847;DHT22;25517;52.422;10.782;2022-08-19T09:50:07;18.80;99.90
39847;DHT22;25517;52.422;10.782;2022-08-19T09:52:33;18.90;99.90
39847;DHT22;25517;52.422;10.782;2022-08-19T09:55:00;18.90;99.90
39847;DHT22;25517;52.422;10.782;2022-08-19T09:57:25;18.90;99.90
39847;DHT22;25517;52.422;10.782;2022-08-19T09:59:51;19.00;99.90
39847;DHT22;25517;52.422;10.782;2022-08-19T10:02:16;19.10;99.90
39847;DHT22;25517;52.422;10.782;2022-08-19T10:04:43;19.20;99.90
39847;DHT22;25517;52.422;10.782;2022-08-19T10:07:29;19.20;99.90
39847;DHT22;25517;52.422;10.782;2022-08-19T10:09:54;19.30;99.90
39847;DHT22;25517;52.422;10.782;2022-08-19T10:12:20;19.40;99.90
39847;DHT22;25517;52.422;10.782;2022-08-19T10:14:46;19.40;99.90
39847;DHT22;25517;52.422;10.782;2022-08-19T10:17:11;19.40;99.90
39847;DHT22;25517;52.422;10.782;2022-08-19T10:19:38;19.50;99.90
39847;DHT22;25517;52.422;10.782;2022-08-19T10:22:05;19.50;99.90
39847;DHT22;25517;52.422;10.782;2022-08-19T10:24:31;19.60;99.90
39847;DHT22;25517;52.422;10.782;2022-08-19T10:26:56;19.70;99.90
39847;DHT22;25517;52.422;10.782;2022-08-19T10:29:22;19.80;99.90
39847;DHT22;25517;52.422;10.782;2022-08-19T10:31:48;20.00;99.90
39847;DHT22;25517;52.422;10.782;2022-08-19T10:34:13;20.10;99.90
39847;DHT22;25517;52.422;10.782;2022-08-19T10:36:39;20.20;99.90
39847;DHT22;25517;52.422;10.782;2022-08-19T10:39:07;20.20;99.90
39847;DHT22;25517;52.422;10.782;2022-08-19T10:41:35;20.30;99.90
39847;DHT22;25517;52.422;10.782;2022-08-19T10:44:05;20.40;99.90
39847;DHT22;25517;52.422;10.782;2022-08-19T10:46:33;20.40;99.90
39847;DHT22;25517;52.422;10.782;2022-08-19T10:49:00;20.40;99.90
39847;DHT22;25517;52.422;10.782;2022-08-19T10:51:26;20.40;99.90
39847;DHT22;25517;52.422;10.782;2022-08-19T10:54:10;20.40;99.90
39847;DHT22;25517;52.422;10.782;2022-08-19T10:56:36;20.40;99.90
39847;DHT22;25517;52.422;10.782;2022-08-19T10:59:25;20.40;99.90
39847;DHT22;25517;52.422;10.782;2022-08-19T11:01:53;20.60;99.90
39847;DHT22;25517;52.422;10.782;2022-08-19T11:04:20;20.60;99.90
39847;DHT22;25517;52.422;10.782;2022-08-19T11:06:49;20.80;99.90
39847;DHT22;25517;52.422;10.782;2022-08-19T11:09:25;20.90;99.90
39847;DHT22;25517;52.422;10.782;2022-08-19T11:11:51;21.20;99.90
39847;DHT22;25517;52.422;10.782;2022-08-19T11:14:19;21.50;99.90
39847;DHT22;25517;52.422;10.782;2022-08-19T11:16:50;21.90;99.90
39847;DHT22;25517;52.422;10.782;2022-08-19T11:19:16;22.50;99.90
39847;DHT22;25517;52.422;10.782;2022-08-19T11:21:47;22.70;99.90
39847;DHT22;25517;52.422;10.782;2022-08-19T11:24:15;23.30;99.90
39847;DHT22;25517;52.422;10.782;2022-08-19T11:26:42;23.60;99.90
39847;DHT22;25517;52.422;10.782;2022-08-19T11:29:10;24.30;99.90
39847;DHT22;25517;52.422;10.782;2022-08-19T11:31:39;24.80;99.90
39847;DHT22;25517;52.422;10.782;2022-08-19T11:34:08;25.10;99.90
39847;DHT22;25517;52.422;10.782;2022-08-19T11:36:36;26.00;99.90
39847;DHT22;25517;52.422;10.782;2022-08-19T11:39:04;26.10;99.90
39847;DHT22;25517;52.422;10.782;2022-08-19T11:41:29;26.00;99.90
39847;DHT22;25517;52.422;10.782;2022-08-19T11:43:55;25.40;99.90
39847;DHT22;25517;52.422;10.782;2022-08-19T11:46:23;25.20;99.90
39847;DHT22;25517;52.422;10.782;2022-08-19T11:48:49;24.90;99.90
39847;DHT22;25517;52.422;10.782;2022-08-19T11:51:18;24.70;99.90
39847;DHT22;25517;52.422;10.782;2022-08-19T11:53:44;24.30;99.90
39847;DHT22;25517;52.422;10.782;2022-08-19T11:56:10;24.30;99.90
39847;DHT22;25517;52.422;10.782;2022-08-19T11:58:36;24.30;99.90
39847;DHT22;25517;52.422;10.782;2022-08-19T12:01:06;24.40;99.90
39847;DHT22;25517;52.422;10.782;2022-08-19T12:03:32;24.40;99.90
39847;DHT22;25517;52.422;10.782;2022-08-19T12:06:06;24.90;99.90
39847;DHT22;25517;52.422;10.782;2022-08-19T12:08:32;25.10;99.90
39847;DHT22;25517;52.422;10.782;2022-08-19T12:10:58;24.90;99.90
39847;DHT22;25517;52.422;10.782;2022-08-19T12:13:26;24.70;99.90
39847;DHT22;25517;52.422;10.782;2022-08-19T12:15:51;24.50;99.90
39847;DHT22;25517;52.422;10.782;2022-08-19T12:18:18;24.40;99.90
39847;DHT22;25517;52.422;10.782;2022-08-19T12:20:43;24.30;99.90
39847;DHT22;25517;52.422;10.782;2022-08-19T12:23:11;24.40;99.90
39847;DHT22;25517;52.422;10.782;2022-08-19T12:25:37;24.70;99.90
39847;DHT22;25517;52.422;10.782;2022-08-19T12:28:03;24.70;99.90
39847;DHT22;25517;52.422;10.782;2022-08-19T12:30:29;24.70;99.90
39847;DHT22;25517;52.422;10.782;2022-08-19T12:32:54;24.40;99.90
39847;DHT22;25517;52.422;10.782;2022-08-19T12:35:20;24.50;99.90
39847;DHT22;25517;52.422;10.782;2022-08-19T12:37:46;24.50;99.90
39847;DHT22;25517;52.422;10.782;2022-08-19T12:40:12;24.40;99.90
39847;DHT22;25517;52.422;10.782;2022-08-19T12:42:39;24.20;99.90
39847;DHT22;25517;52.422;10.782;2022-08-19T12:45:09;24.20;99.90
39847;DHT22;25517;52.422;10.782;2022-08-19T12:47:35;24.20;99.90
39847;DHT22;25517;52.422;10.782;2022-08-19T12:50:02;24.10;99.90
39847;DHT22;25517;52.422;10.782;2022-08-19T12:52:28;24.10;99.90
39847;DHT22;25517;52.422;10.782;2022-08-19T12:54:54;24.20;99.90
39847;DHT22;25517;52.422;10.782;2022-08-19T12:57:21;24.10;99.90
39847;DHT22;25517;52.422;10.782;2022-08-19T12:59:51;24.10;99.90
39847;DHT22;25517;52.422;10.782;2022-08-19T13:02:18;24.00;99.90
39847;DHT22;25517;52.422;10.782;2022-08-19T13:04:45;24.10;99.90
39847;DHT22;25517;52.422;10.782;2022-08-19T13:07:10;24.10;99.90
39847;DHT22;25517;52.422;10.782;2022-08-19T13:09:37;24.10;99.90
39847;DHT22;25517;52.422;10.782;2022-08-19T13:12:03;24.00;99.90
39847;DHT22;25517;52.422;10.782;2022-08-19T13:14:33;23.90;99.90
39847;DHT22;25517;52.422;10.782;2022-08-19T13:16:59;24.00;99.90
39847;DHT22;25517;52.422;10.782;2022-08-19T13:19:24;23.70;99.90
39847;DHT22;25517;52.422;10.782;2022-08-19T13:21:50;23.60;99.90
39847;DHT22;25517;52.422;10.782;2022-08-19T13:24:17;23.40;99.90
39847;DHT22;25517;52.422;10.782;2022-08-19T13:26:42;23.30;99.90
39847;DHT22;25517;52.422;10.782;2022-08-19T13:29:08;23.30;99.90
39847;DHT22;25517;52.422;10.782;2022-08-19T13:31:52;23.40;99.90
39847;DHT22;25517;52.422;10.782;2022-08-19T13:34:36;23.50;99.90
39847;DHT22;25517;52.422;10.782;2022-08-19T13:37:03;23.40;99.90
39847;DHT22;25517;52.422;10.782;2022-08-19T13:39:30;23.30;99.90
39847;DHT22;25517;52.422;10.782;2022-08-19T13:41:57;23.40;99.90
39847;DHT22;25517;52.422;10.782;2022-08-19T13:44:26;23.60;99.90
39847;DHT22;25517;52.422;10.782;2022-08-19T13:46:55;23.70;99.90
39847;DHT22;25517;52.422;10.782;2022-08-19T13:49:27;23.60;99.90
39847;DHT22;25517;52.422;10.782;2022-08-19T13:51:56;23.70;99.90
39847;DHT22;25517;52.422;10.782;2022-08-19T13:54:21;23.80;99.90
39847;DHT22;25517;52.422;10.782;2022-08-19T13:56:47;24.00;99.90
39847;DHT22;25517;52.422;10.782;2022-08-19T13:59:13;24.10;99.90
39847;DHT22;25517;52.422;10.782;2022-08-19T14:01:39;24.10;99.90
39847;DHT22;25517;52.422;10.782;2022-08-19T14:04:05;24.20;99.90
39847;DHT22;25517;52.422;10.782;2022-08-19T14:06:32;24.50;99.90
39847;DHT22;25517;52.422;10.782;2022-08-19T14:08:57;24.60;99.90
39847;DHT22;25517;52.422;10.782;2022-08-19T14:11:22;24.80;99.90
39847;DHT22;25517;52.422;10.782;2022-08-19T14:13:49;25.10;99.90
39847;DHT22;25517;52.422;10.782;2022-08-19T14:16:14;25.30;99.90
39847;DHT22;25517;52.422;10.782;2022-08-19T14:18:40;25.60;99.90
39847;DHT22;25517;52.422;10.782;2022-08-19T14:21:06;26.00;99.90
39847;DHT22;25517;52.422;10.782;2022-08-19T14:23:33;26.40;99.90
39847;DHT22;25517;52.422;10.782;2022-08-19T14:26:08;26.40;99.50
39847;DHT22;25517;52.422;10.782;2022-08-19T14:28:34;26.30;99.90
39847;DHT22;25517;52.422;10.782;2022-08-19T14:31:00;26.10;99.70
39847;DHT22;25517;52.422;10.782;2022-08-19T14:33:25;26.20;99.50
39847;DHT22;25517;52.422;10.782;2022-08-19T14:35:51;26.40;99.00
39847;DHT22;25517;52.422;10.782;2022-08-19T14:38:17;26.60;99.20
39847;DHT22;25517;52.422;10.782;2022-08-19T14:40:44;26.40;98.60
39847;DHT22;25517;52.422;10.782;2022-08-19T14:43:10;26.40;98.20
39847;DHT22;25517;52.422;10.782;2022-08-19T14:45:37;26.30;98.40
39847;DHT22;25517;52.422;10.782;2022-08-19T14:48:06;26.30;99.30
39847;DHT22;25517;52.422;10.782;2022-08-19T14:50:33;26.30;99.30
39847;DHT22;25517;52.422;10.782;2022-08-19T14:53:02;26.20;98.70
39847;DHT22;25517;52.422;10.782;2022-08-19T14:55:29;26.20;99.50
39847;DHT22;25517;52.422;10.782;2022-08-19T14:57:55;26.20;98.70
39847;DHT22;25517;52.422;10.782;2022-08-19T15:00:20;26.20;98.30
39847;DHT22;25517;52.422;10.782;2022-08-19T15:02:46;26.20;98.60
39847;DHT22;25517;52.422;10.782;2022-08-19T15:05:12;26.00;98.60
39847;DHT22;25517;52.422;10.782;2022-08-19T15:07:38;25.90;99.00
39847;DHT22;25517;52.422;10.782;2022-08-19T15:10:05;26.00;99.10
39847;DHT22;25517;52.422;10.782;2022-08-19T15:12:35;26.10;98.30
39847;DHT22;25517;52.422;10.782;2022-08-19T15:15:01;26.00;98.00
39847;DHT22;25517;52.422;10.782;2022-08-19T15:17:26;26.10;97.30
39847;DHT22;25517;52.422;10.782;2022-08-19T15:19:52;26.10;98.10
39847;DHT22;25517;52.422;10.782;2022-08-19T15:22:17;26.20;97.40
39847;DHT22;25517;52.422;10.782;2022-08-19T15:24:43;26.20;97.90
39847;DHT22;25517;52.422;10.782;2022-08-19T15:27:11;26.00;97.60
39847;DHT22;25517;52.422;10.782;2022-08-19T15:29:38;26.00;97.40
39847;DHT22;25517;52.422;10.782;2022-08-19T15:32:03;25.90;98.40